Time;durP1;ratioP1;P1;durP2;ratioP2;P2;SDS_P1;SDS_P2;PMS_P1;PMS_P2;Temp;Humidity;BMP_temperature;BMP_pressure;BME280_temperature;BME280_humidity;BME280_pressure;Samples;Min_cycle;Max_cycle;Signal;HPM_P1;HPM_P2
2023/06/11 00:02:24;;;;;;;8.70;2.90;;;;;;;21.25;56.08;98705.90;79154;1302;3013398;-63
2023/06/11 00:04:51;;;;;;;6.70;3.30;;;;;;;21.23;56.02;98709.48;79120;1297;3013106;-62
2023/06/11 00:07:19;;;;;;;6.10;3.00;;;;;;;21.22;56.20;98710.18;77942;1302;3028325;-61
2023/06/11 00:09:46;;;;;;;4.80;3.00;;;;;;;21.21;56.01;98707.98;79170;1297;3013627;-60
2023/06/11 00:12:13;;;;;;;10.00;3.60;;;;;;;21.18;56.03;98702.66;79122;1301;3011980;-60
2023/06/11 00:14:41;;;;;;;7.90;3.40;;;;;;;21.13;56.18;98701.07;77987;1297;3026561;-59
2023/06/11 00:17:08;;;;;;;6.60;3.60;;;;;;;21.09;56.22;98706.99;79186;1297;3013674;-60
2023/06/11 00:19:34;;;;;;;9.90;3.40;;;;;;;21.04;56.62;98700.52;79128;1297;3011605;-59
2023/06/11 00:22:05;;;;;;;9.90;3.10;;;;;;;21.03;56.53;98704.02;77982;1297;3051865;-60
2023/06/11 00:24:33;;;;;;;6.30;3.20;;;;;;;21.04;56.36;98697.65;79220;1298;3013432;-60
2023/06/11 00:27:01;;;;;;;4.90;3.00;;;;;;;21.02;56.51;98696.25;77840;1302;3030055;-60
2023/06/11 00:29:28;;;;;;;8.00;3.60;;;;;;;20.99;56.56;98694.15;79216;1297;3013601;-62
2023/06/11 00:31:55;;;;;;;6.30;3.40;;;;;;;20.95;56.91;98699.05;79166;1297;3011608;-61
2023/06/11 00:34:22;;;;;;;9.90;3.50;;;;;;;20.94;56.76;98697.52;77961;1302;3052081;-60
2023/06/11 00:36:49;;;;;;;8.00;3.50;;;;;;;20.87;57.15;98699.61;79293;1302;3013656;-62
2023/06/11 00:39:16;;;;;;;9.30;3.50;;;;;;;20.89;56.94;98695.00;79140;1301;3011417;-59
2023/06/11 00:41:48;;;;;;;7.90;2.90;;;;;;;20.86;57.21;98691.54;77944;1302;3028244;-60
2023/06/11 00:44:18;;;;;;;6.00;3.60;;;;;;;20.88;57.08;98693.98;79219;1301;3013742;-61
2023/06/11 00:46:47;;;;;;;6.40;3.30;;;;;;;20.89;56.80;98693.33;78018;1303;3049399;-61
2023/06/11 00:49:17;;;;;;;6.40;3.20;;;;;;;20.87;56.95;98691.39;79258;1301;3014105;-60
2023/06/11 00:51:45;;;;;;;5.90;3.80;;;;;;;20.87;57.22;98689.33;77957;1301;3068797;-60
2023/06/11 00:54:12;;;;;;;5.00;3.30;;;;;;;20.81;57.58;98691.77;79237;1297;3013181;-61
2023/06/11 00:56:41;;;;;;;8.80;3.30;;;;;;;20.80;57.41;98692.05;79170;1297;3011532;-63
2023/06/11 00:59:09;;;;;;;5.50;3.40;;;;;;;20.79;57.39;98691.63;77786;1302;3053227;-61
2023/06/11 01:01:51;;;;;;;8.60;3.30;;;;;;;20.82;57.35;98689.69;79124;1303;3013486;-61
2023/06/11 01:04:23;;;;;;;5.00;3.30;;;;;;;20.76;57.78;98691.41;78045;1303;3054465;-62
2023/06/11 01:06:54;;;;;;;6.30;3.10;;;;;;;20.76;57.77;98688.81;79212;1302;3013983;-61
2023/06/11 01:09:26;;;;;;;7.20;3.50;;;;;;;20.73;57.99;98695.00;77929;1303;3051816;-62
2023/06/11 01:11:57;;;;;;;6.90;3.40;;;;;;;20.71;58.14;98692.05;79211;1297;3013342;-61
2023/06/11 01:14:25;;;;;;;6.60;3.40;;;;;;;20.69;58.07;98695.77;77946;1303;3054679;-61
2023/06/11 01:17:04;;;;;;;9.00;3.90;;;;;;;20.67;58.29;98698.02;79323;1302;3018286;-63
2023/06/11 01:19:48;;;;;;;5.80;3.30;;;;;;;20.65;58.18;98699.48;78005;1302;3053037;-62
2023/06/11 01:22:19;;;;;;;7.90;3.60;;;;;;;20.63;58.31;98699.15;77950;1303;3069623;-61
2023/06/11 01:25:13;;;;;;;10.30;4.00;;;;;;;20.60;58.51;98700.36;79207;1303;3013130;-62
2023/06/11 01:28:06;;;;;;;6.70;3.60;;;;;;;20.55;58.99;98698.95;77876;1302;3056588;-62
2023/06/11 01:30:39;;;;;;;;;;;;;;;20.56;58.98;98698.31;77899;1303;3051049;-62
2023/06/11 01:33:08;;;;;;;8.00;3.40;;;;;;;20.51;59.12;98697.72;79178;1297;3013484;-61
2023/06/11 01:35:43;;;;;;;8.70;3.70;;;;;;;20.50;59.24;98696.15;78067;1302;3050220;-62
2023/06/11 01:38:11;;;;;;;10.90;3.30;;;;;;;20.44;59.64;98694.52;79206;1297;3011815;-63
2023/06/11 01:40:50;;;;;;;6.10;4.10;;;;;;;20.42;59.92;98692.63;78001;1302;3053211;-60
2023/06/11 01:43:17;;;;;;;11.90;3.80;;;;;;;20.36;60.18;98690.33;79307;1297;3011805;-62
2023/06/11 01:45:44;;;;;;;6.50;3.80;;;;;;;20.38;60.11;98691.09;79151;1303;3011400;-62
2023/06/11 01:48:12;;;;;;;5.50;3.60;;;;;;;20.33;60.69;98693.61;77888;1303;3048683;-60
2023/06/11 01:50:40;;;;;;;10.30;4.20;;;;;;;20.31;60.63;98699.02;79240;1297;3011640;-62
2023/06/11 01:53:07;;;;;;;11.70;4.40;;;;;;;20.25;61.08;98698.13;79222;1302;3011879;-61
2023/06/11 01:55:36;;;;;;;10.40;3.30;;;;;;;20.26;60.79;98696.61;78008;1300;3052212;-60
2023/06/11 01:58:03;;;;;;;7.30;3.70;;;;;;;20.24;60.67;98697.45;79363;1297;3014476;-61
2023/06/11 02:00:30;;;;;;;7.30;4.20;;;;;;;20.21;60.95;98693.58;79221;1297;3011958;-61
2023/06/11 02:03:01;;;;;;;6.00;3.40;;;;;;;20.21;60.80;98690.06;78030;1302;3050483;-61
2023/06/11 02:05:28;;;;;;;6.10;3.20;;;;;;;20.25;60.16;98687.50;79115;1300;3011740;-60
2023/06/11 02:07:57;;;;;;;7.60;3.80;;;;;;;20.22;60.43;98685.27;78869;1297;3011947;-62
2023/06/11 02:10:23;;;;;;;6.50;3.50;;;;;;;20.20;60.56;98688.95;79245;1302;3013628;-62
2023/06/11 02:12:50;;;;;;;6.50;3.60;;;;;;;20.18;60.52;98683.48;79173;1297;3011903;-61
2023/06/11 02:15:19;;;;;;;5.00;3.10;;;;;;;20.21;60.12;98685.06;78072;1303;3027210;-60
2023/06/11 02:17:45;;;;;;;6.40;3.10;;;;;;;20.17;60.67;98685.02;79108;1303;3013136;-61
2023/06/11 02:20:14;;;;;;;6.80;3.20;;;;;;;20.20;60.32;98690.39;79205;1297;3011753;-61
2023/06/11 02:22:42;;;;;;;5.80;3.00;;;;;;;20.19;60.42;98683.65;77992;1303;3049729;-61
2023/06/11 02:25:09;;;;;;;6.00;3.40;;;;;;;20.18;60.44;98685.92;79212;1303;3013774;-62
2023/06/11 02:27:36;;;;;;;4.80;3.20;;;;;;;20.18;60.29;98687.52;79150;1303;3011941;-62
2023/06/11 02:30:05;;;;;;;5.10;3.40;;;;;;;20.16;60.68;98688.42;78016;1303;3052482;-59
2023/06/11 02:32:32;;;;;;;5.20;2.50;;;;;;;20.21;60.24;98688.13;79194;1297;3012861;-63
2023/06/11 02:34:59;;;;;;;5.00;2.90;;;;;;;20.20;60.44;98687.88;79195;1297;3011915;-62
2023/06/11 02:37:27;;;;;;;7.40;2.50;;;;;;;20.20;60.11;98683.98;77965;1303;3051598;-61
2023/06/11 02:39:54;;;;;;;4.20;2.70;;;;;;;20.14;60.73;98683.83;79299;1302;3012888;-59
2023/06/11 02:42:20;;;;;;;9.80;3.20;;;;;;;20.14;60.62;98689.17;79193;1300;3011436;-62
2023/06/11 02:44:48;;;;;;;7.30;3.30;;;;;;;20.09;61.00;98687.05;77989;1302;3028529;-61
2023/06/11 02:47:15;;;;;;;9.60;3.30;;;;;;;20.10;60.78;98681.52;79147;1301;3013574;-60
2023/06/11 02:49:41;;;;;;;5.70;3.10;;;;;;;20.11;60.74;98685.48;79160;1298;3012043;-59
2023/06/11 02:52:09;;;;;;;6.10;2.90;;;;;;;19.99;61.44;98682.40;77923;1301;3028755;-60
2023/06/11 02:54:36;;;;;;;6.50;3.20;;;;;;;20.04;60.89;98684.68;79204;1303;3013162;-61
2023/06/11 02:57:03;;;;;;;5.40;3.10;;;;;;;20.04;61.04;98676.77;79092;1303;3011806;-59
2023/06/11 02:59:31;;;;;;;6.80;2.70;;;;;;;20.04;61.32;98670.83;77994;1303;3029054;-59
2023/06/11 03:01:58;;;;;;;4.70;3.10;;;;;;;20.07;60.99;98672.45;79157;1297;3013480;-63
2023/06/11 03:04:24;;;;;;;5.30;3.00;;;;;;;20.04;61.38;98669.72;79179;1303;3011588;-62
2023/06/11 03:06:52;;;;;;;5.00;2.70;;;;;;;20.02;61.16;98661.06;77978;1303;3027281;-60
2023/06/11 03:09:22;;;;;;;6.20;3.00;;;;;;;19.99;61.51;98671.87;79175;1301;3013459;-60
2023/06/11 03:11:51;;;;;;;4.40;2.80;;;;;;;19.99;61.49;98685.08;78750;1302;3011964;-60
2023/06/11 03:14:20;;;;;;;5.50;3.10;;;;;;;19.99;61.78;98716.19;79389;1302;3013501;-61
2023/06/11 03:16:48;;;;;;;3.80;2.70;;;;;;;20.01;61.41;98738.48;78100;1303;3057136;-59
2023/06/11 03:19:15;;;;;;;8.70;2.70;;;;;;;20.00;61.62;98724.88;79224;1298;3018408;-61
2023/06/11 03:21:42;;;;;;;4.20;2.60;;;;;;;20.00;61.57;98736.63;79208;1298;3012015;-59
2023/06/11 03:24:10;;;;;;;7.70;2.70;;;;;;;19.99;61.92;98724.36;78107;1302;3027293;-60
2023/06/11 03:26:37;;;;;;;7.10;2.60;;;;;;;19.97;62.06;98721.83;79090;1303;3013342;-62
2023/06/11 03:29:04;;;;;;;5.80;3.20;;;;;;;19.99;61.86;98727.76;79170;1302;3011688;-63
2023/06/11 03:31:37;;;;;;;7.80;2.80;;;;;;;19.96;61.96;98729.06;78010;1302;3056563;-62
2023/06/11 03:34:04;;;;;;;3.50;2.50;;;;;;;19.95;62.04;98735.77;79268;1297;3012774;-60
2023/06/11 03:36:34;;;;;;;3.90;2.50;;;;;;;19.98;62.04;98726.73;77942;1302;3026499;-61
2023/06/11 03:39:01;;;;;;;6.20;2.60;;;;;;;20.04;61.64;98728.40;79525;1301;3012865;-61
2023/06/11 03:41:27;;;;;;;3.90;2.90;;;;;;;20.03;61.93;98723.68;79230;1300;3011370;-61
2023/06/11 03:43:55;;;;;;;7.30;2.90;;;;;;;20.00;62.15;98721.48;78071;1303;3068966;-61
2023/06/11 03:46:23;;;;;;;4.30;2.80;;;;;;;19.95;62.17;98727.73;79147;1297;3012888;-60
2023/06/11 03:48:49;;;;;;;7.70;2.80;;;;;;;20.00;61.88;98724.90;79283;1300;3012044;-62
2023/06/11 03:51:17;;;;;;;6.30;3.20;;;;;;;19.99;62.12;98729.09;78093;1300;3055032;-60
2023/06/11 03:53:44;;;;;;;3.50;2.40;;;;;;;19.99;62.07;98726.95;79156;1303;3012952;-61
2023/06/11 03:56:11;;;;;;;4.90;2.70;;;;;;;19.99;61.83;98723.13;79236;1302;3013306;-61
2023/06/11 03:58:39;;;;;;;7.20;2.50;;;;;;;20.00;61.81;98722.22;77905;1298;3028762;-60
2023/06/11 04:01:06;;;;;;;5.10;3.30;;;;;;;20.00;61.85;98725.49;79354;1298;3013237;-61
2023/06/11 04:03:33;;;;;;;5.10;2.80;;;;;;;20.00;61.95;98724.69;79156;1297;3011710;-61
2023/06/11 04:06:01;;;;;;;8.90;3.10;;;;;;;19.96;62.16;98728.06;77906;1303;3052418;-60
2023/06/11 04:08:30;;;;;;;4.20;2.60;;;;;;;20.00;61.93;98725.62;79285;1300;3011747;-61
2023/06/11 04:11:00;;;;;;;4.00;2.80;;;;;;;19.98;62.23;98721.73;78715;1303;3011658;-61
2023/06/11 04:13:27;;;;;;;3.70;2.30;;;;;;;19.95;62.49;98717.45;79270;1298;3015368;-61
2023/06/11 04:15:53;;;;;;;4.40;2.80;;;;;;;20.08;61.76;98721.19;79160;1297;3013214;-59
2023/06/11 04:18:21;;;;;;;4.60;2.60;;;;;;;20.12;61.58;98721.95;77990;1303;3057711;-61
2023/06/11 04:20:50;;;;;;;3.90;2.40;;;;;;;20.11;61.74;98721.23;79205;1303;3013747;-62
2023/06/11 04:23:21;;;;;;;7.20;2.60;;;;;;;20.14;61.61;98720.83;77965;1300;3053326;-63
2023/06/11 04:25:51;;;;;;;4.50;2.70;;;;;;;20.22;61.30;98721.33;79183;1300;3013951;-60
2023/06/11 04:28:23;;;;;;;2.90;2.50;;;;;;;20.28;61.29;98722.51;78067;1300;3053640;-61
2023/06/11 04:30:50;;;;;;;4.60;2.50;;;;;;;20.26;61.55;98720.77;79413;1297;3012678;-62
2023/06/11 04:33:21;;;;;;;5.30;2.60;;;;;;;20.27;61.45;98723.86;77909;1297;3026045;-62
2023/06/11 04:35:49;;;;;;;3.50;2.20;;;;;;;20.30;61.27;98719.80;79191;1297;3013373;-60
2023/06/11 04:38:18;;;;;;;3.50;2.40;;;;;;;20.28;61.37;98717.33;78812;1297;3011640;-61
2023/06/11 04:40:45;;;;;;;5.30;2.60;;;;;;;20.25;61.60;98724.42;79292;1298;3013377;-60
2023/06/11 04:43:12;;;;;;;4.80;2.30;;;;;;;20.29;61.51;98724.80;79191;1297;3013325;-62
2023/06/11 04:45:40;;;;;;;7.80;2.60;;;;;;;20.37;61.23;98728.37;78141;1300;3052348;-61
2023/06/11 04:48:09;;;;;;;11.30;2.60;;;;;;;20.35;61.66;98721.91;79446;1301;3013153;-62
2023/06/11 04:50:37;;;;;;;3.60;2.30;;;;;;;20.34;61.65;98729.11;79153;1298;3011941;-61
2023/06/11 04:53:05;;;;;;;3.50;2.50;;;;;;;20.39;61.40;98726.05;77916;1300;3049329;-62
2023/06/11 04:55:38;;;;;;;5.80;2.50;;;;;;;20.34;61.65;98727.11;77170;1300;3013638;-60
2023/06/11 04:58:08;;;;;;;4.10;2.50;;;;;;;20.37;61.60;98726.50;78107;1300;3052778;-60
2023/06/11 05:00:35;;;;;;;6.40;2.30;;;;;;;20.40;61.48;98728.25;79400;1301;3013248;-62
2023/06/11 05:03:06;;;;;;;4.70;2.60;;;;;;;20.44;61.32;98731.70;78072;1300;3026236;-60
2023/06/11 05:05:34;;;;;;;8.00;2.70;;;;;;;20.46;61.38;98731.48;79581;1297;3011970;-61
2023/06/11 05:08:04;;;;;;;5.40;2.60;;;;;;;20.40;61.66;98733.35;78882;1298;3011936;-62
2023/06/11 05:10:32;;;;;;;4.70;2.50;;;;;;;20.36;61.90;98733.74;79507;1297;3011550;-62
2023/06/11 05:12:59;;;;;;;3.70;2.20;;;;;;;20.36;61.86;98734.77;79281;1298;3011740;-61
2023/06/11 05:15:27;;;;;;;3.60;2.30;;;;;;;20.29;62.08;98731.77;77929;1301;3052427;-60
2023/06/11 05:17:54;;;;;;;3.80;2.30;;;;;;;20.32;61.92;98733.96;79023;1303;3013088;-62
2023/06/11 05:20:25;;;;;;;6.60;2.40;;;;;;;20.35;61.95;98739.75;78987;1297;3011634;-61
2023/06/11 05:22:58;;;;;;;7.90;2.60;;;;;;;20.40;61.57;98739.95;77935;1303;3057029;-60
2023/06/11 05:25:29;;;;;;;5.30;2.30;;;;;;;20.40;61.89;98742.30;79134;1297;3012319;-61
2023/06/11 05:28:00;;;;;;;4.30;2.80;;;;;;;20.40;61.95;98746.16;77993;1302;3053203;-60
2023/06/11 05:30:36;;;;;;;6.50;2.60;;;;;;;20.45;61.85;98747.06;79121;1302;3013518;-62
2023/06/11 05:33:05;;;;;;;3.50;2.20;;;;;;;20.51;61.54;98745.91;77863;1303;3054274;-62
2023/06/11 05:35:31;;;;;;;4.20;2.20;;;;;;;20.56;60.97;98746.11;79064;1303;3013759;-60
2023/06/11 05:37:58;;;;;;;3.10;2.20;;;;;;;20.62;60.74;98744.79;79152;1298;3011472;-60
2023/06/11 05:40:26;;;;;;;4.60;2.70;;;;;;;20.67;60.62;98745.59;77899;1302;3055182;-59
2023/06/11 05:42:53;;;;;;;3.10;2.20;;;;;;;20.71;60.70;98742.76;79222;1297;3019117;-61
2023/06/11 05:45:19;;;;;;;6.70;2.70;;;;;;;20.72;60.55;98741.17;79217;1300;3011942;-61
2023/06/11 05:47:47;;;;;;;4.20;2.60;;;;;;;20.75;60.23;98737.58;78054;1300;3028133;-61
2023/06/11 05:50:14;;;;;;;5.30;2.60;;;;;;;20.81;60.16;98737.11;79292;1303;3013519;-61
2023/06/11 05:52:41;;;;;;;8.40;2.50;;;;;;;20.87;60.04;98734.51;79242;1303;3011854;-64
2023/06/11 05:55:09;;;;;;;3.70;2.50;;;;;;;20.89;60.32;98731.77;78000;1301;3056053;-63
2023/06/11 05:57:37;;;;;;;3.60;2.30;;;;;;;21.02;59.89;98734.17;79141;1297;3014072;-64
2023/06/11 06:00:06;;;;;;;4.20;2.20;;;;;;;21.10;59.95;98735.71;79321;1297;3013158;-63
2023/06/11 06:02:43;;;;;;;2.70;2.30;;;;;;;21.13;60.20;98733.95;77993;1300;3053783;-63
2023/06/11 06:05:15;;;;;;;4.90;2.50;;;;;;;21.25;60.08;98729.95;79327;1303;3013634;-61
2023/06/11 06:07:43;;;;;;;5.50;2.60;;;;;;;21.36;59.71;98729.60;78117;1300;3069037;-61
2023/06/11 06:10:10;;;;;;;5.50;2.30;;;;;;;21.41;59.36;98727.83;79344;1297;3013111;-63
2023/06/11 06:12:37;;;;;;;6.50;2.80;;;;;;;21.57;58.83;98719.80;79226;1303;3011930;-62
2023/06/11 06:15:06;;;;;;;4.00;2.50;;;;;;;21.71;58.09;98714.39;78020;1300;3026195;-61
2023/06/11 06:17:33;;;;;;;7.20;2.40;;;;;;;21.81;57.46;98712.34;79127;1298;3012974;-61
2023/06/11 06:20:00;;;;;;;2.70;2.00;;;;;;;21.91;56.97;98710.71;79353;1301;3011614;-62
2023/06/11 06:22:28;;;;;;;4.40;2.50;;;;;;;22.02;56.53;98713.27;77992;1303;3069213;-62
2023/06/11 06:24:55;;;;;;;4.90;2.60;;;;;;;21.99;56.65;98708.36;79250;1299;3013642;-62
2023/06/11 06:27:21;;;;;;;3.70;2.40;;;;;;;22.00;56.78;98710.46;79162;1303;3011912;-62
2023/06/11 06:29:50;;;;;;;5.50;2.30;;;;;;;22.06;56.74;98712.52;78056;1303;3028599;-61
2023/06/11 06:32:17;;;;;;;3.90;2.20;;;;;;;22.12;56.63;98709.63;79182;1303;3013623;-59
2023/06/11 06:34:43;;;;;;;4.30;2.50;;;;;;;22.27;56.09;98713.20;79242;1301;3011635;-63
2023/06/11 06:37:11;;;;;;;3.20;2.20;;;;;;;22.35;56.57;98714.45;78066;1303;3027037;-63
2023/06/11 06:39:38;;;;;;;3.60;2.40;;;;;;;22.50;56.26;98711.76;79226;1297;3012964;-62
2023/06/11 06:42:06;;;;;;;5.60;2.60;;;;;;;22.62;55.44;98718.11;79210;1303;3011770;-61
2023/06/11 06:44:42;;;;;;;4.60;2.30;;;;;;;22.68;55.43;98713.14;78042;1297;3054872;-62
2023/06/11 06:47:09;;;;;;;8.60;2.60;;;;;;;22.78;55.00;98712.51;79139;1298;3012983;-63
2023/06/11 06:49:38;;;;;;;3.80;2.40;;;;;;;22.91;54.52;98716.80;79260;1300;3013106;-62
2023/06/11 06:52:11;;;;;;;9.90;3.00;;;;;;;22.98;54.61;98719.21;78036;1298;3068928;-62
2023/06/11 06:54:38;;;;;;;7.30;2.50;;;;;;;23.07;54.48;98720.06;79286;1297;3011837;-64
2023/06/11 06:57:07;;;;;;;4.60;2.40;;;;;;;23.09;54.24;98717.21;78010;1300;3055735;-60
2023/06/11 06:59:34;;;;;;;4.70;2.40;;;;;;;23.00;54.50;98721.48;79302;1303;3013629;-62
2023/06/11 07:02:02;;;;;;;4.10;2.00;;;;;;;22.90;54.85;98718.56;79213;1302;3011577;-61
2023/06/11 07:04:30;;;;;;;7.80;2.40;;;;;;;22.99;54.18;98722.89;78030;1301;3053259;-62
2023/06/11 07:06:57;;;;;;;4.20;2.40;;;;;;;22.97;54.16;98723.48;79063;1303;3013294;-61
2023/06/11 07:09:25;;;;;;;3.90;2.30;;;;;;;22.82;54.69;98728.16;79170;1303;3011746;-62
2023/06/11 07:11:53;;;;;;;4.50;2.40;;;;;;;22.87;54.58;98726.48;78050;1302;3056111;-60
2023/06/11 07:14:20;;;;;;;3.30;2.10;;;;;;;22.85;54.67;98727.77;79234;1299;3011554;-61
2023/06/11 07:16:47;;;;;;;5.40;2.20;;;;;;;22.86;54.84;98730.10;79173;1299;3011775;-62
2023/06/11 07:19:15;;;;;;;7.60;2.70;;;;;;;22.81;54.92;98730.41;77804;1303;3053284;-60
2023/06/11 07:21:42;;;;;;;5.50;2.90;;;;;;;22.78;54.82;98729.48;79246;1301;3020478;-63
2023/06/11 07:24:09;;;;;;;5.80;2.50;;;;;;;22.68;55.14;98732.38;79203;1303;3013664;-63
2023/06/11 07:26:37;;;;;;;4.50;2.40;;;;;;;22.71;55.26;98740.98;77944;1301;3028462;-64
2023/06/11 07:29:05;;;;;;;6.90;2.40;;;;;;;22.73;55.22;98745.08;79236;1303;3013568;-61
2023/06/11 07:31:32;;;;;;;4.10;2.50;;;;;;;22.80;55.11;98748.40;78978;1303;3012849;-64
2023/06/11 07:34:00;;;;;;;4.60;2.90;;;;;;;22.87;55.12;98753.95;77954;1311;3052768;-66
2023/06/11 07:36:26;;;;;;;5.50;2.30;;;;;;;22.70;55.79;98761.35;79031;1304;3018425;-62
2023/06/11 07:38:53;;;;;;;5.70;2.50;;;;;;;22.69;55.59;98763.13;79039;1303;3011531;-64
2023/06/11 07:41:21;;;;;;;6.20;2.20;;;;;;;22.49;56.38;98769.97;77911;1301;3028970;-61
2023/06/11 07:43:48;;;;;;;5.80;2.50;;;;;;;22.45;55.75;98775.14;79159;1300;3013027;-59
2023/06/11 07:46:15;;;;;;;2.90;2.40;;;;;;;22.51;55.55;98773.40;79131;1299;3011928;-64
2023/06/11 07:48:44;;;;;;;5.60;2.30;;;;;;;22.56;55.17;98775.64;77779;1305;3026222;-59
2023/06/11 07:51:11;;;;;;;5.10;2.60;;;;;;;22.51;55.21;98775.30;79075;1303;3011858;-63
2023/06/11 07:53:38;;;;;;;9.10;2.50;;;;;;;22.46;55.67;98775.14;79231;1298;3011834;-63
2023/06/11 07:56:07;;;;;;;4.80;3.50;;;;;;;22.31;56.04;98781.39;78052;1299;3056707;-62
2023/06/11 07:58:33;;;;;;;3.60;2.40;;;;;;;22.25;56.64;98785.23;79110;1300;3012930;-61
2023/06/11 08:01:00;;;;;;;7.60;3.10;;;;;;;22.25;57.17;98795.11;79201;1303;3013428;-62
2023/06/11 08:03:28;;;;;;;9.00;2.70;;;;;;;22.18;57.83;98798.34;78001;1302;3028655;-60
2023/06/11 08:05:55;;;;;;;5.40;3.00;;;;;;;22.10;58.57;98797.45;79161;1302;3013381;-61
2023/06/11 08:08:23;;;;;;;6.60;3.10;;;;;;;22.04;58.73;98805.33;79141;1300;3011556;-62
2023/06/11 08:10:50;;;;;;;3.30;2.80;;;;;;;21.91;59.42;98811.46;77978;1302;3057239;-64
2023/06/11 08:13:18;;;;;;;5.20;2.70;;;;;;;21.93;59.39;98814.82;79173;1299;3013158;-63
2023/06/11 08:15:44;;;;;;;7.50;3.10;;;;;;;21.90;59.52;98813.55;79259;1303;3012410;-60
2023/06/11 08:18:12;;;;;;;5.40;2.80;;;;;;;21.84;59.83;98813.38;78042;1303;3026338;-63
2023/06/11 08:20:39;;;;;;;6.30;2.50;;;;;;;21.85;59.83;98813.69;79202;1303;3012850;-63
2023/06/11 08:23:06;;;;;;;6.50;2.80;;;;;;;21.76;60.15;98810.70;79177;1303;3012844;-62
2023/06/11 08:25:36;;;;;;;5.60;2.70;;;;;;;21.78;60.70;98803.06;78029;1301;3025736;-63
2023/06/11 08:28:03;;;;;;;8.90;2.90;;;;;;;21.77;61.75;98798.00;79229;1301;3013183;-62
2023/06/11 08:30:29;;;;;;;4.90;2.30;;;;;;;21.75;61.99;98804.05;79408;1298;3013361;-60
2023/06/11 08:32:58;;;;;;;5.00;2.90;;;;;;;21.75;62.85;98803.02;78055;1303;3052247;-64
2023/06/11 08:35:25;;;;;;;8.20;2.70;;;;;;;21.76;62.99;98808.10;79149;1300;3013344;-62
2023/06/11 08:37:52;;;;;;;5.80;2.90;;;;;;;21.75;63.78;98810.30;79157;1303;3014008;-60
2023/06/11 08:40:20;;;;;;;4.90;2.70;;;;;;;21.77;64.14;98808.31;77979;1302;3028122;-61
2023/06/11 08:42:47;;;;;;;8.20;2.80;;;;;;;21.77;64.57;98815.95;79356;1303;3014045;-62
2023/06/11 08:45:13;;;;;;;6.40;3.00;;;;;;;21.81;65.13;98812.86;79153;1300;3011607;-65
2023/06/11 08:47:52;;;;;;;5.70;3.00;;;;;;;21.80;65.47;98814.09;77953;1302;3053416;-68
2023/06/11 08:50:21;;;;;;;8.50;3.10;;;;;;;21.84;65.22;98812.37;78064;1300;3052078;-65
2023/06/11 08:52:53;;;;;;;5.70;3.10;;;;;;;21.92;65.28;98812.83;79341;1302;3013742;-66
2023/06/11 08:55:22;;;;;;;9.00;3.20;;;;;;;21.96;65.23;98816.92;77929;1301;3056655;-62
2023/06/11 08:57:50;;;;;;;6.90;3.30;;;;;;;22.06;64.41;98816.63;79181;1302;3013473;-65
2023/06/11 09:00:17;;;;;;;8.00;3.00;;;;;;;22.17;64.03;98816.24;79160;1299;3012872;-67
2023/06/11 09:02:45;;;;;;;6.40;2.90;;;;;;;22.26;64.27;98811.66;77897;1302;3053002;-66
2023/06/11 09:05:12;;;;;;;4.70;3.00;;;;;;;22.28;63.64;98806.67;79183;1303;3013323;-63
2023/06/11 09:07:50;;;;;;;5.00;2.90;;;;;;;22.32;63.15;98809.86;79185;1301;3011880;-65
2023/06/11 09:10:19;;;;;;;3.40;2.80;;;;;;;22.35;62.97;98810.06;77989;1303;3056733;-65
2023/06/11 09:12:48;;;;;;;4.40;3.00;;;;;;;22.37;63.14;98805.37;79199;1300;3013129;-64
2023/06/11 09:15:17;;;;;;;7.90;3.50;;;;;;;22.33;63.64;98800.79;78708;1303;3011703;-63
2023/06/11 09:17:44;;;;;;;4.90;3.10;;;;;;;22.31;63.95;98800.90;79133;1303;3013042;-62
2023/06/11 09:20:13;;;;;;;4.90;3.50;;;;;;;22.30;63.79;98799.33;79185;1299;3011956;-62
2023/06/11 09:22:42;;;;;;;5.40;3.10;;;;;;;22.34;63.92;98804.64;78116;1300;3069073;-64
2023/06/11 09:25:10;;;;;;;5.40;3.20;;;;;;;22.28;64.13;98806.21;79187;1300;3013432;-61
2023/06/11 09:27:38;;;;;;;5.40;3.00;;;;;;;22.26;64.17;98805.95;79199;1299;3013213;-62
2023/06/11 09:30:16;;;;;;;4.80;2.90;;;;;;;22.16;64.59;98815.48;77783;1303;3053147;-63
2023/06/11 09:32:46;;;;;;;5.40;3.30;;;;;;;22.06;65.77;98821.87;77939;1300;3049563;-60
2023/06/11 09:35:13;;;;;;;5.80;3.20;;;;;;;21.94;65.99;98820.10;79180;1302;3013496;-63
2023/06/11 09:37:43;;;;;;;8.80;3.70;;;;;;;21.78;66.76;98825.16;79251;1303;3011755;-64
2023/06/11 09:40:14;;;;;;;8.10;3.70;;;;;;;21.62;68.18;98829.30;77969;1311;3051184;-61
2023/06/11 09:42:45;;;;;;;7.50;3.30;;;;;;;21.50;68.73;98832.89;79168;1300;3013621;-64
2023/06/11 09:45:16;;;;;;;6.50;2.80;;;;;;;21.43;69.48;98839.39;77947;1303;3050534;-62
2023/06/11 09:47:44;;;;;;;5.80;2.90;;;;;;;21.34;70.61;98838.44;79377;1300;3011732;-63
2023/06/11 09:50:17;;;;;;;3.00;1.50;;;;;;;21.39;70.41;98839.52;77950;1302;3050128;-64
2023/06/11 09:52:44;;;;;;;3.00;1.90;;;;;;;21.98;67.86;98836.30;79077;1303;3011935;-63
2023/06/11 09:55:12;;;;;;;3.60;1.80;;;;;;;22.50;65.85;98839.15;77987;1303;3052554;-62
2023/06/11 09:57:40;;;;;;;5.00;2.40;;;;;;;22.57;65.94;98841.46;79181;1303;3013653;-63
2023/06/11 10:00:09;;;;;;;5.50;2.40;;;;;;;22.44;66.59;98837.54;79153;1300;3013131;-63
2023/06/11 10:02:38;;;;;;;6.70;2.50;;;;;;;22.25;67.80;98836.33;78051;1301;3049713;-64
2023/06/11 10:05:06;;;;;;;6.50;2.40;;;;;;;22.05;68.63;98836.05;79233;1300;3013414;-63
2023/06/11 10:07:50;;;;;;;7.10;2.80;;;;;;;21.94;69.24;98833.05;78578;1300;3011820;-64
2023/06/11 10:10:20;;;;;;;3.00;2.30;;;;;;;21.79;70.08;98832.99;77988;1302;3051621;-64
2023/06/11 10:12:50;;;;;;;4.90;2.80;;;;;;;21.76;70.38;98836.27;79285;1301;3011442;-63
2023/06/11 10:15:21;;;;;;;5.60;2.90;;;;;;;21.81;69.56;98831.77;77993;1302;3068290;-67
2023/06/11 10:17:48;;;;;;;5.90;2.70;;;;;;;21.79;69.22;98831.40;79293;1300;3011170;-65
2023/06/11 10:20:25;;;;;;;8.80;2.90;;;;;;;21.78;68.58;98828.36;78763;1300;3011793;-66
2023/06/11 10:23:11;;;;;;;5.70;2.90;;;;;;;21.78;68.45;98821.45;78036;1300;3048581;-62
2023/06/11 10:25:40;;;;;;;6.20;2.50;;;;;;;21.82;67.98;98817.77;78045;1302;3055625;-67
2023/06/11 10:28:07;;;;;;;3.60;2.80;;;;;;;21.81;67.67;98811.75;79359;1299;3013583;-62
2023/06/11 10:30:34;;;;;;;5.40;3.00;;;;;;;21.88;67.36;98810.91;79209;1303;3011764;-65
2023/06/11 10:33:02;;;;;;;4.80;3.10;;;;;;;21.92;67.55;98802.30;78085;1299;3068626;-63
2023/06/11 10:35:32;;;;;;;6.70;3.00;;;;;;;22.04;67.08;98796.63;79240;1301;3018947;-60
2023/06/11 10:38:13;;;;;;;6.70;3.00;;;;;;;22.16;66.85;98797.50;78622;1299;3013110;-62
2023/06/11 10:40:41;;;;;;;7.00;3.20;;;;;;;22.13;67.68;98792.27;77946;1302;3048802;-65
2023/06/11 10:43:19;;;;;;;7.00;3.10;;;;;;;22.17;67.60;98789.35;79192;1301;3013570;-67
2023/06/11 10:46:00;;;;;;;4.60;3.00;;;;;;;22.38;67.19;98797.04;78207;1301;3052749;-65
2023/06/11 10:48:29;;;;;;;4.30;2.80;;;;;;;22.52;65.83;98789.23;78090;1303;3052758;-68
2023/06/11 10:51:07;;;;;;;9.70;3.20;;;;;;;22.58;64.69;98792.35;79517;1300;3014834;-66
2023/06/11 10:53:37;;;;;;;5.20;2.80;;;;;;;22.64;63.55;98791.09;78170;1300;3056240;-68
2023/06/11 10:56:04;;;;;;;8.90;2.70;;;;;;;22.54;63.19;98785.43;79440;1301;3013038;-67
2023/06/11 10:58:31;;;;;;;7.70;3.10;;;;;;;22.49;63.48;98787.87;79528;1302;3011799;-66
2023/06/11 11:00:59;;;;;;;8.70;3.50;;;;;;;22.52;63.55;98781.73;77978;1303;3052251;-66
2023/06/11 11:03:30;;;;;;;6.30;4.00;;;;;;;22.48;63.73;98784.23;79271;1299;3013139;-66
2023/06/11 11:05:58;;;;;;;9.10;4.70;;;;;;;22.26;64.37;98784.30;78158;1301;3052053;-68
2023/06/11 18:19:56;;;;;;;0.70;0.70;;;;;;;17.85;72.09;98899.55;80083;1301;3013006;-64
2023/06/11 18:22:26;;;;;;;2.80;0.80;;;;;;;18.24;70.64;98909.98;78782;1303;3018980;-64
2023/06/11 18:24:55;;;;;;;1.30;0.90;;;;;;;18.86;68.02;98913.61;78506;1306;3011906;-64
2023/06/11 18:27:22;;;;;;;2.60;1.00;;;;;;;18.96;67.49;98912.23;78899;1306;3014861;-64
2023/06/11 18:29:49;;;;;;;1.30;0.80;;;;;;;18.86;67.10;98916.45;79026;1303;3011892;-64
2023/06/11 18:32:17;;;;;;;1.40;0.90;;;;;;;18.64;67.42;98918.55;75729;1297;5727320;-64
2023/06/11 18:34:44;;;;;;;1.60;1.00;;;;;;;18.51;67.92;98921.23;79285;1297;3012919;-65
2023/06/11 18:37:10;;;;;;;1.00;0.90;;;;;;;18.21;68.44;98923.61;79423;1297;3013281;-64